Main page
METAR-TAF:

METAR-TAF

Airports :

Leuchars, Scotland

Leuchars Station

latitude: 56-23N, longitude: 002-52W, elevation: 12 m

Current weather observation

The report was made 50 minutes ago, at 01:50 UTC
Wind 5 kt from the North/Northeast
Temperature 14°C
Humidity 88%
Pressure 1016 hPa
Visibility 10 km or more
Scattered clouds at a height of 2700 ft
Broken clouds at a height of 7000 ft

METAR: EGQL 240150Z 02005KT 9999 SCT027 BKN070 14/12 Q1016 BLU

Time: 03:40 (02:40 UTC)

Forecast

The report was made 1 hour and 16 minutes ago, at 01:24 UTC
Forecast valid from 24 at 03 UTC to 24 at 12 UTC
Wind 10 kt from the Northeast
Visibility 10 km or more
Broken clouds at a height of 3000 ft

TAF: EGQL 240124Z 2403/2412 05010KT 9999 BKN030

Weather observations and forecasts of more than 4000 airports (METAR and TAF reports).

The available stations are represented by yellow and red dots on the map.

Hover mouse over dot to see the name of the station.

Then click to see weather observations and forecasts.

To change the map : click on the green buttons with a black cross to zoom in, on the green button with a dash to zoom out, or on the green arrows for adjacent maps.


METAR-TAF: